Time;durP1;ratioP1;P1;durP2;ratioP2;P2;SDS_P1;SDS_P2;PMS_P1;PMS_P2;Temp;Humidity;BMP_temperature;BMP_pressure;BME280_temperature;BME280_humidity;BME280_pressure;Samples;Min_cycle;Max_cycle;Signal;HPM_P1;HPM_P2
2023/09/28 00:00:35;;;;;;;6.28;5.13;;;;;;;14.46;75.83;101975.00;5091165;28;20068;-75
2023/09/28 00:02:50;;;;;;;6.53;5.30;;;;;;;14.42;75.87;101978.53;5092855;28;20419;-74
2023/09/28 00:05:19;;;;;;;5.65;5.15;;;;;;;14.42;75.74;101983.81;5090252;28;20424;-75
2023/09/28 00:07:47;;;;;;;5.63;4.95;;;;;;;14.40;75.69;101980.34;5094817;28;20049;-74
2023/09/28 00:10:16;;;;;;;4.47;4.07;;;;;;;14.37;75.66;101985.63;5094332;28;20044;-75
2023/09/28 00:12:43;;;;;;;5.35;4.57;;;;;;;14.28;75.49;101975.25;5090078;28;20539;-74
2023/09/28 00:15:12;;;;;;;6.65;4.40;;;;;;;14.30;75.77;101984.84;5090362;28;20071;-75
2023/09/28 00:17:39;;;;;;;4.60;4.18;;;;;;;14.28;75.39;101977.88;5092682;28;20087;-74
2023/09/28 00:20:09;;;;;;;4.65;4.22;;;;;;;14.27;75.38;101982.28;5093754;28;20040;-75
2023/09/28 00:22:36;;;;;;;5.45;4.88;;;;;;;14.25;75.57;101988.44;5094285;28;20131;-74
2023/09/28 00:25:10;;;;;;;6.30;5.32;;;;;;;14.22;75.59;101986.72;5090618;28;20040;-74
2023/09/28 00:27:37;;;;;;;6.65;5.15;;;;;;;14.18;75.68;101990.31;5088369;28;20052;-75
2023/09/28 00:30:06;;;;;;;5.85;5.28;;;;;;;14.16;75.87;101995.56;5094599;28;20036;-74
2023/09/28 00:32:33;;;;;;;5.82;4.47;;;;;;;14.14;75.64;102000.00;5093615;28;20123;-74
2023/09/28 00:35:00;;;;;;;5.55;4.53;;;;;;;14.01;75.64;101982.66;5091032;28;20447;-75
2023/09/28 00:37:26;;;;;;;3.97;3.55;;;;;;;14.09;75.49;101999.19;5091182;28;20052;-75
2023/09/28 00:39:55;;;;;;;4.32;3.92;;;;;;;14.06;75.25;102007.09;5086458;28;20105;-74
2023/09/28 00:42:21;;;;;;;6.57;3.63;;;;;;;14.04;75.41;102008.88;5069779;28;20048;-74
2023/09/28 00:44:48;;;;;;;4.28;3.92;;;;;;;14.01;75.46;102003.66;5076980;28;20697;-75
2023/09/28 00:47:15;;;;;;;7.53;3.70;;;;;;;13.99;75.55;102008.06;5073178;28;20071;-74
2023/09/28 00:49:44;;;;;;;5.38;4.90;;;;;;;13.97;75.30;102015.09;5079405;28;20050;-75
2023/09/28 00:52:11;;;;;;;4.97;4.47;;;;;;;13.94;75.17;102017.75;5076839;28;20053;-74
2023/09/28 00:54:39;;;;;;;6.00;4.63;;;;;;;13.89;75.51;102020.44;5079642;28;20052;-75
2023/09/28 00:57:07;;;;;;;6.20;4.63;;;;;;;13.87;75.47;102021.34;5085427;28;20489;-78
2023/09/28 00:59:34;;;;;;;7.10;4.90;;;;;;;13.86;75.45;102022.22;5088151;28;20105;-79
2023/09/28 01:02:00;;;;;;;6.88;4.82;;;;;;;13.85;75.48;102020.50;5086388;28;20098;-78
2023/09/28 01:04:27;;;;;;;5.63;5.00;;;;;;;13.83;75.60;102031.03;5085983;28;20557;-78
2023/09/28 01:06:55;;;;;;;7.60;5.07;;;;;;;13.80;75.50;102024.94;5076613;28;20041;-73
2023/09/28 01:09:24;;;;;;;4.85;4.43;;;;;;;13.78;75.61;102037.22;5076702;28;20051;-72
2023/09/28 01:11:52;;;;;;;10.15;4.88;;;;;;;13.73;75.56;102030.25;5073213;28;20485;-73
2023/09/28 01:14:19;;;;;;;6.20;4.75;;;;;;;13.72;75.48;102033.78;5077501;28;20052;-73
2023/09/28 01:16:46;;;;;;;5.93;4.97;;;;;;;13.67;75.55;102025.09;5076005;28;20675;-73
2023/09/28 01:19:13;;;;;;;5.60;4.80;;;;;;;13.68;75.47;102037.31;5082081;28;20044;-73
2023/09/28 01:21:40;;;;;;;5.38;4.85;;;;;;;13.61;75.52;102019.91;5077033;28;20051;-74
2023/09/28 01:24:08;;;;;;;7.03;4.32;;;;;;;13.56;75.85;102021.72;5075384;28;20052;-73
2023/09/28 01:26:36;;;;;;;7.15;4.60;;;;;;;13.61;75.72;102026.91;5069559;28;20119;-72
2023/09/28 01:29:02;;;;;;;4.88;4.43;;;;;;;13.58;75.69;102035.69;5073905;28;20424;-72
2023/09/28 01:31:29;;;;;;;5.28;4.35;;;;;;;13.56;75.58;102034.84;5074583;28;20511;-73
2023/09/28 01:33:55;;;;;;;8.18;5.57;;;;;;;13.50;75.58;102029.66;5074644;28;20059;-73
2023/09/28 01:36:22;;;;;;;6.53;4.70;;;;;;;13.52;75.53;102038.38;5075254;28;20121;-73
2023/09/28 01:38:54;;;;;;;6.00;5.47;;;;;;;13.50;75.67;102037.53;5076838;28;20129;-73
2023/09/28 01:41:22;;;;;;;6.53;5.68;;;;;;;13.47;75.62;102037.56;5077950;28;20048;-73
2023/09/28 01:43:48;;;;;;;8.00;5.32;;;;;;;13.45;75.57;102036.69;5072259;28;20117;-74
2023/09/28 01:46:15;;;;;;;5.40;4.90;;;;;;;13.42;75.65;102028.84;5073670;28;20041;-72
2023/09/28 01:48:41;;;;;;;5.85;5.25;;;;;;;13.41;75.60;102033.25;5073661;28;20125;-73
2023/09/28 01:51:08;;;;;;;5.10;4.55;;;;;;;13.39;75.66;102034.13;5071315;28;20552;-72
2023/09/28 01:53:35;;;;;;;6.88;5.57;;;;;;;13.37;75.71;102030.66;5069604;28;20102;-73
2023/09/28 01:56:04;;;;;;;6.38;4.32;;;;;;;13.35;75.81;102033.31;5080060;28;20040;-73
2023/09/28 01:58:31;;;;;;;5.47;4.88;;;;;;;13.25;75.84;102021.13;5072317;28;20129;-73
2023/09/28 02:00:58;;;;;;;7.60;4.95;;;;;;;13.28;75.77;102032.47;5074796;28;20055;-72
2023/09/28 02:03:25;;;;;;;6.55;5.47;;;;;;;13.28;75.84;102042.09;5076987;28;20113;-73
2023/09/28 02:05:52;;;;;;;4.90;4.50;;;;;;;13.26;75.87;102039.50;5079622;28;20685;-78
2023/09/28 02:08:18;;;;;;;5.75;4.85;;;;;;;13.24;75.85;102027.25;5086879;28;20052;-78
2023/09/28 02:10:45;;;;;;;7.10;4.53;;;;;;;13.23;75.81;102034.28;5083830;28;20332;-79
2023/09/28 02:13:12;;;;;;;7.55;5.78;;;;;;;13.08;75.92;102018.66;5088993;28;20047;-78
2023/09/28 02:15:43;;;;;;;6.20;5.45;;;;;;;13.21;75.97;102038.66;5084578;28;20044;-79
2023/09/28 02:18:09;;;;;;;7.50;4.97;;;;;;;13.18;75.75;102051.81;5071093;28;21041;-74
2023/09/28 02:20:36;;;;;;;4.65;4.25;;;;;;;13.16;75.69;102055.31;5080211;28;20044;-74
2023/09/28 02:23:02;;;;;;;3.85;3.55;;;;;;;13.13;75.61;102064.09;5076679;28;20421;-75
2023/09/28 02:25:29;;;;;;;4.63;4.22;;;;;;;13.08;75.65;102055.38;5077046;28;20051;-75
2023/09/28 02:27:55;;;;;;;4.57;4.10;;;;;;;13.08;75.79;102052.75;5076681;28;20755;-74
2023/09/28 02:30:23;;;;;;;6.35;5.47;;;;;;;13.05;75.93;102050.16;5074045;28;20182;-74
2023/09/28 02:32:51;;;;;;;8.45;5.40;;;;;;;13.05;76.16;102050.16;5078334;28;20056;-75
2023/09/28 02:35:18;;;;;;;6.97;5.22;;;;;;;13.01;76.02;102045.84;5076421;28;20998;-76
2023/09/28 02:37:46;;;;;;;8.70;5.57;;;;;;;13.01;76.01;102051.06;5077203;28;20101;-75
2023/09/28 02:40:14;;;;;;;5.63;5.10;;;;;;;13.01;76.02;102049.31;5079818;28;20040;-74
2023/09/28 02:42:41;;;;;;;8.48;6.00;;;;;;;12.98;75.92;102051.09;5077194;28;20060;-75
2023/09/28 02:45:11;;;;;;;5.78;5.18;;;;;;;12.98;75.96;102045.84;5078833;28;20124;-74
2023/09/28 02:47:40;;;;;;;7.63;4.68;;;;;;;12.96;75.98;102040.59;5077233;28;20036;-74
2023/09/28 02:50:10;;;;;;;7.43;4.82;;;;;;;12.93;75.89;102040.63;5068842;28;20052;-74
2023/09/28 02:52:37;;;;;;;7.50;5.72;;;;;;;12.89;75.80;102035.41;5076549;28;20455;-74
2023/09/28 02:55:06;;;;;;;9.32;6.05;;;;;;;12.91;76.21;102029.28;5079252;28;20119;-75
2023/09/28 02:57:33;;;;;;;5.18;4.68;;;;;;;12.90;76.17;102031.94;5078846;28;20092;-75
2023/09/28 03:00:00;;;;;;;7.78;5.55;;;;;;;12.89;76.09;102038.91;5076424;28;20051;-74
2023/09/28 03:02:26;;;;;;;7.75;6.50;;;;;;;12.88;76.23;102036.31;5078588;28;20059;-74
2023/09/28 03:04:54;;;;;;;11.25;6.22;;;;;;;12.84;76.61;102024.97;5073346;28;20180;-75
2023/09/28 03:07:22;;;;;;;15.02;6.25;;;;;;;12.85;76.47;102026.72;5076888;28;20052;-74
2023/09/28 03:09:49;;;;;;;6.55;5.35;;;;;;;12.83;76.15;102034.59;5070840;28;20137;-74
2023/09/28 03:12:16;;;;;;;7.07;6.18;;;;;;;12.82;76.02;102047.72;5077887;28;20501;-75
2023/09/28 03:14:42;;;;;;;6.47;5.65;;;;;;;12.78;76.25;102061.75;5071841;28;20489;-74
2023/09/28 03:17:09;;;;;;;7.90;5.40;;;;;;;12.76;76.27;102074.00;5075517;28;20067;-80
2023/09/28 03:19:35;;;;;;;6.57;5.43;;;;;;;12.75;76.41;102070.50;5082407;28;20047;-81
2023/09/28 03:22:02;;;;;;;7.00;5.78;;;;;;;12.74;76.39;102071.34;5080884;28;20048;-80
2023/09/28 03:24:30;;;;;;;8.50;5.63;;;;;;;12.67;76.12;102064.44;5075690;28;20052;-81
2023/09/28 03:26:57;;;;;;;8.15;5.68;;;;;;;12.73;76.44;102068.75;5082488;28;20370;-80
2023/09/28 03:29:23;;;;;;;9.25;6.22;;;;;;;12.71;76.63;102066.13;5078418;28;20416;-79
2023/09/28 03:31:50;;;;;;;12.05;6.80;;;;;;;12.70;76.53;102067.03;5085313;28;20036;-79
2023/09/28 03:34:16;;;;;;;7.78;6.20;;;;;;;12.62;76.55;102053.09;5078954;28;20413;-80
2023/09/28 03:36:43;;;;;;;7.30;5.82;;;;;;;12.66;76.66;102067.03;5078922;28;20075;-80
2023/09/28 03:39:11;;;;;;;6.88;5.82;;;;;;;12.67;76.96;102072.28;5082550;28;20048;-80
2023/09/28 03:41:40;;;;;;;8.13;6.03;;;;;;;12.67;77.01;102061.81;5074997;28;20063;-80
2023/09/28 03:44:08;;;;;;;8.45;6.70;;;;;;;12.66;77.15;102057.44;5082601;28;20409;-80
2023/09/28 03:46:35;;;;;;;8.27;6.35;;;;;;;12.66;76.95;102040.84;5082555;28;20044;-78
2023/09/28 03:49:02;;;;;;;9.40;6.15;;;;;;;12.65;77.32;102034.72;5083210;28;20044;-78
2023/09/28 03:51:29;;;;;;;11.70;6.07;;;;;;;12.66;77.27;102025.97;5089791;28;20044;-78
2023/09/28 03:53:57;;;;;;;7.85;6.43;;;;;;;12.65;77.42;102016.38;5083266;28;20117;-78
2023/09/28 03:56:24;;;;;;;7.82;5.60;;;;;;;12.66;77.36;102018.09;5083214;28;20470;-79
2023/09/28 03:58:52;;;;;;;7.45;5.82;;;;;;;12.63;77.34;102012.03;5085274;28;20041;-79
2023/09/28 04:01:19;;;;;;;7.63;6.20;;;;;;;12.63;77.38;102018.13;5084465;28;20048;-79
2023/09/28 04:03:46;;;;;;;8.30;6.70;;;;;;;12.66;77.46;102022.47;5079083;28;20083;-80
2023/09/28 04:06:13;;;;;;;7.90;5.93;;;;;;;12.50;77.44;101993.78;5090695;28;20040;-80
2023/09/28 04:08:40;;;;;;;8.45;6.28;;;;;;;12.62;77.45;102019.03;5084788;28;20048;-80
2023/09/28 04:11:07;;;;;;;7.68;5.88;;;;;;;12.62;77.29;102024.25;5082588;28;20550;-80
2023/09/28 04:13:34;;;;;;;7.72;5.95;;;;;;;12.63;77.22;102023.38;5084400;28;20465;-80
2023/09/28 04:16:03;;;;;;;10.35;6.13;;;;;;;12.63;77.24;102022.50;5081707;28;20048;-80
2023/09/28 04:18:30;;;;;;;7.55;6.47;;;;;;;12.62;77.21;102024.25;5083058;28;20128;-79
2023/09/28 04:20:57;;;;;;;7.45;6.65;;;;;;;12.62;77.15;102024.25;5088123;28;20074;-80
2023/09/28 04:23:24;;;;;;;10.45;5.80;;;;;;;12.52;77.28;102023.47;5080265;28;20070;-80
2023/09/28 04:25:51;;;;;;;8.48;6.47;;;;;;;12.60;77.16;102039.97;5086038;28;20076;-80
2023/09/28 04:28:18;;;;;;;6.47;5.65;;;;;;;12.53;77.11;102021.72;5082987;28;20044;-80
2023/09/28 04:30:45;;;;;;;8.52;6.93;;;;;;;12.57;77.08;102031.28;5082036;28;20086;-80
2023/09/28 04:33:14;;;;;;;8.82;6.32;;;;;;;12.57;77.11;102031.28;5080710;28;20129;-80
2023/09/28 04:35:41;;;;;;;7.68;6.65;;;;;;;12.56;77.15;102040.03;5083018;28;20044;-75
2023/09/28 04:38:09;;;;;;;9.13;6.22;;;;;;;12.56;77.32;102040.03;5081602;28;20097;-79
2023/09/28 04:40:37;;;;;;;7.90;5.90;;;;;;;12.55;77.09;102036.56;5084018;28;20053;-80
2023/09/28 04:43:05;;;;;;;6.95;5.53;;;;;;;12.53;76.95;102029.56;5081137;28;20048;-79
2023/09/28 04:45:32;;;;;;;7.40;6.28;;;;;;;12.51;77.07;102026.09;5085100;28;20127;-79
2023/09/28 04:48:00;;;;;;;6.15;5.30;;;;;;;12.53;77.13;102029.56;5081248;28;20493;-79
2023/09/28 04:50:29;;;;;;;6.47;5.50;;;;;;;12.52;77.16;102027.81;5074316;28;20084;-78
2023/09/28 04:52:56;;;;;;;7.45;6.38;;;;;;;12.49;77.17;102023.47;5084438;28;20109;-79
2023/09/28 04:55:23;;;;;;;7.13;6.30;;;;;;;12.49;77.11;102028.69;5078398;28;20508;-80
2023/09/28 04:57:53;;;;;;;7.13;6.43;;;;;;;12.48;77.17;102031.34;5087013;28;20043;-79
2023/09/28 05:00:20;;;;;;;8.57;6.13;;;;;;;12.33;77.11;102012.22;5085436;28;20409;-80
2023/09/28 05:02:47;;;;;;;7.70;6.03;;;;;;;12.47;77.13;102029.63;5079439;28;20082;-80
2023/09/28 05:05:15;;;;;;;8.60;6.50;;;;;;;12.37;77.13;102013.94;5078185;28;20056;-81
2023/09/28 05:07:43;;;;;;;8.30;6.30;;;;;;;12.45;77.16;102026.13;5083697;28;20051;-83
2023/09/28 05:10:11;;;;;;;9.45;6.28;;;;;;;12.44;77.45;102029.63;5076960;28;20059;-78
2023/09/28 05:12:38;;;;;;;7.93;6.70;;;;;;;12.43;77.34;102030.50;5086110;28;20786;-77
2023/09/28 05:15:08;;;;;;;8.65;7.00;;;;;;;12.36;77.39;102016.56;5076020;28;21335;-81
2023/09/28 05:17:35;;;;;;;9.07;6.82;;;;;;;12.41;77.44;102032.25;5072300;28;20051;-80
2023/09/28 05:20:03;;;;;;;8.40;6.18;;;;;;;12.41;77.54;102035.78;5083385;28;20040;-81
2023/09/28 05:22:33;;;;;;;13.50;7.45;;;;;;;12.41;77.58;102029.63;5079658;28;20392;-82
2023/09/28 05:25:02;;;;;;;8.00;6.32;;;;;;;12.35;77.70;102030.53;5080993;28;20036;-82
2023/09/28 05:27:30;;;;;;;9.70;6.93;;;;;;;12.28;77.78;102014.00;5079169;28;20077;-83
2023/09/28 05:29:57;;;;;;;9.77;6.90;;;;;;;12.40;78.03;102035.75;5089129;28;20043;-83
2023/09/28 05:32:23;;;;;;;13.80;7.65;;;;;;;12.37;78.23;102024.41;5092611;28;20489;-81
2023/09/28 05:34:53;;;;;;;9.68;7.43;;;;;;;12.41;78.28;102032.25;5081527;28;20052;-83
2023/09/28 05:37:20;;;;;;;11.75;8.60;;;;;;;12.31;78.48;102013.97;5077573;28;20083;-78
2023/09/28 05:39:47;;;;;;;11.45;7.63;;;;;;;12.40;78.65;102034.00;5077985;28;21234;-78
2023/09/28 05:42:16;;;;;;;12.45;7.43;;;;;;;12.43;78.82;102030.50;5079718;28;20044;-78
2023/09/28 05:44:43;;;;;;;14.82;7.55;;;;;;;12.45;78.94;102031.38;5078374;28;20051;-78
2023/09/28 05:47:13;;;;;;;13.88;8.27;;;;;;;12.45;79.05;102023.50;5078438;28;20049;-75
2023/09/28 05:49:40;;;;;;;12.43;7.32;;;;;;;12.45;79.21;102021.75;5072616;28;20049;-74
2023/09/28 05:52:07;;;;;;;9.82;7.05;;;;;;;12.49;79.62;102022.59;5075000;28;20050;-73
2023/09/28 05:54:34;;;;;;;17.80;9.15;;;;;;;12.50;79.80;102019.97;5075250;28;20055;-74
2023/09/28 05:57:01;;;;;;;10.73;8.02;;;;;;;12.52;80.06;102022.56;5074120;28;20524;-74
2023/09/28 05:59:29;;;;;;;15.45;7.80;;;;;;;12.55;80.18;102018.19;5075382;28;20055;-74
2023/09/28 06:01:56;;;;;;;22.70;8.68;;;;;;;12.57;80.57;102010.31;5073045;28;20048;-73
2023/09/28 06:04:25;;;;;;;27.27;9.40;;;;;;;12.62;80.76;102003.28;5073411;28;20041;-73
2023/09/28 06:06:51;;;;;;;69.50;11.52;;;;;;;12.65;81.17;102007.66;5073955;28;20687;-73
2023/09/28 06:09:20;;;;;;;28.35;11.63;;;;;;;12.68;81.45;102000.63;5071071;28;20079;-73
2023/09/28 06:11:48;;;;;;;21.90;11.20;;;;;;;12.71;81.64;101999.72;5067650;28;20048;-73
2023/09/28 06:14:15;;;;;;;33.58;10.65;;;;;;;12.75;81.96;102004.94;5071898;28;20075;-73
2023/09/28 06:16:44;;;;;;;28.83;10.50;;;;;;;12.78;82.37;101993.56;5067739;28;20058;-73
2023/09/28 06:19:12;;;;;;;39.15;11.77;;;;;;;12.83;82.60;102003.13;5080794;28;20048;-73
2023/09/28 06:21:39;;;;;;;38.45;11.75;;;;;;;12.87;82.83;101993.47;5070365;28;20492;-72
2023/09/28 06:24:07;;;;;;;48.92;14.05;;;;;;;12.92;83.07;101993.44;5072408;28;20554;-72
2023/09/28 06:26:34;;;;;;;55.65;14.88;;;;;;;12.97;83.32;101989.88;5073141;28;20043;-72
2023/09/28 06:29:03;;;;;;;42.25;12.82;;;;;;;13.01;83.46;101989.00;5076157;28;20416;-71
2023/09/28 06:31:30;;;;;;;21.83;11.80;;;;;;;13.07;83.53;101989.81;5073001;28;20048;-72
2023/09/28 06:33:58;;;;;;;46.17;12.13;;;;;;;13.10;83.96;101992.41;5073181;28;20155;-73
2023/09/28 06:36:26;;;;;;;44.08;10.35;;;;;;;13.15;83.93;102001.97;5073799;28;20047;-72
2023/09/28 06:38:54;;;;;;;46.25;10.32;;;;;;;13.19;84.00;101994.94;5071139;28;20044;-72
2023/09/28 06:41:25;;;;;;;49.78;9.27;;;;;;;13.25;84.28;101989.63;5068589;28;20476;-72
2023/09/28 06:43:52;;;;;;;21.10;8.73;;;;;;;13.27;84.26;101996.63;5078760;28;20054;-76
2023/09/28 06:46:19;;;;;;;47.33;8.30;;;;;;;13.35;84.25;102003.53;5073373;28;20042;-77
2023/09/28 06:48:46;;;;;;;27.13;7.72;;;;;;;13.38;84.20;102006.16;5076505;28;20052;-75
2023/09/28 06:51:15;;;;;;;82.65;8.95;;;;;;;13.43;84.22;102006.97;5075456;28;20047;-74
2023/09/28 06:53:42;;;;;;;50.33;8.27;;;;;;;13.48;84.06;102007.78;5072512;28;20151;-76
2023/09/28 06:56:09;;;;;;;35.72;8.45;;;;;;;13.52;84.11;102004.25;5073411;28;20044;-75
2023/09/28 06:58:36;;;;;;;15.75;8.80;;;;;;;13.44;84.03;101974.59;5073531;28;20052;-75
2023/09/28 07:01:03;;;;;;;12.07;8.32;;;;;;;13.59;84.11;101998.03;5074860;28;20055;-75
2023/09/28 07:03:31;;;;;;;11.15;8.90;;;;;;;13.64;83.85;102001.50;5074859;28;20051;-76
2023/09/28 07:05:58;;;;;;;12.15;9.43;;;;;;;13.69;83.89;101997.06;5074067;28;20493;-77
2023/09/28 07:08:26;;;;;;;13.05;9.50;;;;;;;13.73;83.90;101997.88;5070037;28;20048;-76
2023/09/28 07:10:53;;;;;;;14.32;10.50;;;;;;;13.78;83.91;102003.09;5076750;28;20048;-74
2023/09/28 07:13:19;;;;;;;16.55;10.30;;;;;;;13.81;83.88;101997.81;5071123;28;20048;-73
2023/09/28 07:15:49;;;;;;;12.60;9.57;;;;;;;13.86;83.92;102004.72;5079703;28;20041;-74
2023/09/28 07:18:16;;;;;;;11.52;9.95;;;;;;;13.92;84.05;102009.03;5074518;28;20469;-74
2023/09/28 07:20:43;;;;;;;10.98;9.50;;;;;;;13.97;84.11;102012.44;5077074;28;20730;-74
2023/09/28 07:23:10;;;;;;;16.80;10.13;;;;;;;14.02;84.17;102005.38;5074876;28;20788;-74
2023/09/28 07:25:40;;;;;;;11.52;10.18;;;;;;;14.08;84.26;101993.94;5073647;28;20048;-74
2023/09/28 07:28:07;;;;;;;12.70;10.23;;;;;;;14.16;84.14;101992.94;5074994;28;20052;-74
2023/09/28 07:30:35;;;;;;;12.95;8.85;;;;;;;14.24;84.19;101990.22;5071167;28;20056;-75
2023/09/28 07:33:02;;;;;;;13.63;9.82;;;;;;;14.33;84.14;101995.31;5074239;28;20397;-76
2023/09/28 07:35:29;;;;;;;12.32;9.55;;;;;;;14.40;84.08;101996.13;5073742;28;20048;-75
2023/09/28 07:37:56;;;;;;;10.32;9.15;;;;;;;14.48;84.01;101998.63;5075470;28;20056;-73
2023/09/28 07:40:24;;;;;;;12.88;9.77;;;;;;;14.55;84.08;102000.31;5079378;28;20055;-73
2023/09/28 07:42:53;;;;;;;12.32;9.95;;;;;;;14.64;84.09;101994.03;5076730;28;20130;-75
2023/09/28 07:45:20;;;;;;;11.85;8.95;;;;;;;14.71;83.98;102000.91;5070162;28;20048;-75
2023/09/28 07:47:47;;;;;;;11.57;9.40;;;;;;;14.78;83.93;101997.31;5070561;28;20054;-73
2023/09/28 07:50:14;;;;;;;9.25;8.32;;;;;;;14.85;83.66;101999.78;5080269;28;20051;-74
2023/09/28 07:52:42;;;;;;;11.43;8.13;;;;;;;14.94;83.76;101998.81;5079639;28;20047;-74
2023/09/28 07:55:10;;;;;;;11.68;9.90;;;;;;;15.02;83.76;102007.41;5080649;28;20052;-73
2023/09/28 07:57:36;;;;;;;11.35;8.52;;;;;;;15.10;83.78;102001.16;5079914;28;20091;-80
2023/09/28 08:00:07;;;;;;;11.35;8.32;;;;;;;15.18;83.70;102004.53;5085522;28;20078;-78
2023/09/28 08:02:34;;;;;;;8.85;7.95;;;;;;;15.26;83.68;101990.31;5086278;28;20058;-79
2023/09/28 08:05:01;;;;;;;10.48;8.52;;;;;;;15.34;83.56;101997.19;5090951;28;20076;-79
2023/09/28 08:07:31;;;;;;;9.63;8.70;;;;;;;15.45;83.37;101985.59;5076885;28;20052;-73
2023/09/28 08:09:58;;;;;;;7.80;7.00;;;;;;;15.54;83.40;101979.25;5075835;28;20097;-74
2023/09/28 08:12:27;;;;;;;9.23;8.32;;;;;;;15.64;83.38;101983.44;5057076;28;20052;-73
2023/09/28 08:14:54;;;;;;;9.00;8.13;;;;;;;15.74;83.10;101986.78;5074893;28;20420;-74
2023/09/28 08:17:23;;;;;;;9.80;8.10;;;;;;;15.82;82.94;101979.56;5079642;28;20051;-79
2023/09/28 08:19:50;;;;;;;10.75;7.88;;;;;;;15.92;82.72;101990.81;5081415;28;20127;-79
2023/09/28 08:22:17;;;;;;;8.23;7.05;;;;;;;15.99;82.44;101983.63;5087341;28;20073;-80
2023/09/28 08:24:44;;;;;;;8.15;7.07;;;;;;;16.08;82.39;101978.13;5086833;28;20056;-83
2023/09/28 08:27:11;;;;;;;8.13;7.43;;;;;;;16.18;82.45;101974.41;5083747;28;20049;-78
2023/09/28 08:29:38;;;;;;;8.88;7.15;;;;;;;16.27;82.13;101981.25;5084001;28;20060;-78
2023/09/28 08:32:05;;;;;;;10.57;7.57;;;;;;;16.34;81.72;101978.44;5085624;28;20040;-78
2023/09/28 08:34:35;;;;;;;10.65;7.38;;;;;;;16.41;81.56;101979.16;5074776;28;20052;-76
2023/09/28 08:37:03;;;;;;;7.93;7.13;;;;;;;16.44;81.44;101972.94;5089928;28;20041;-77
2023/09/28 08:39:30;;;;;;;8.43;6.70;;;;;;;16.54;81.18;101980.59;5078723;28;20425;-75
2023/09/28 08:42:01;;;;;;;10.27;7.72;;;;;;;16.59;80.83;101977.84;5081182;28;20044;-81
2023/09/28 08:44:31;;;;;;;12.18;7.40;;;;;;;16.65;80.76;101969.78;5083592;28;20075;-80
2023/09/28 08:47:00;;;;;;;9.25;7.72;;;;;;;16.67;80.66;101970.59;5082962;28;20041;-79
2023/09/28 08:49:29;;;;;;;12.60;5.97;;;;;;;16.70;80.47;101975.81;5076941;28;20048;-80
2023/09/28 08:51:59;;;;;;;6.88;6.28;;;;;;;16.72;80.26;101983.69;5087640;28;20050;-77
2023/09/28 08:54:26;;;;;;;8.23;7.40;;;;;;;16.73;80.25;101980.13;5081406;28;20058;-81
2023/09/28 08:56:54;;;;;;;7.95;7.15;;;;;;;16.74;80.13;101969.56;5085717;28;20041;-79
2023/09/28 08:59:23;;;;;;;9.32;7.30;;;;;;;16.77;79.85;101971.28;5083103;28;20056;-79
2023/09/28 09:01:52;;;;;;;10.55;7.68;;;;;;;16.80;80.00;101969.44;5085811;28;20463;-75
2023/09/28 09:04:19;;;;;;;11.75;8.68;;;;;;;16.79;79.63;101964.19;5080003;28;20040;-76
2023/09/28 09:06:47;;;;;;;8.73;6.40;;;;;;;16.79;79.29;101965.06;5074878;28;20082;-74
2023/09/28 09:09:18;;;;;;;9.25;7.22;;;;;;;16.78;79.16;101965.97;5077092;28;20501;-74
2023/09/28 09:11:52;;;;;;;8.20;6.53;;;;;;;16.76;79.18;101953.69;5074993;28;20098;-73
2023/09/28 09:14:19;;;;;;;4.78;3.72;;;;;;;16.75;79.01;101942.25;5080154;28;20036;-75
2023/09/28 09:16:46;;;;;;;4.53;4.10;;;;;;;16.77;78.89;101944.91;5077786;28;20039;-74
2023/09/28 09:19:15;;;;;;;4.32;3.95;;;;;;;16.76;78.65;101941.41;5080331;28;20463;-75
2023/09/28 09:21:44;;;;;;;3.88;3.40;;;;;;;16.77;78.55;101945.75;5073136;28;20048;-74
2023/09/28 09:24:13;;;;;;;3.22;2.92;;;;;;;16.73;78.63;101938.78;5072310;28;20142;-72
2023/09/28 09:26:43;;;;;;;3.05;2.67;;;;;;;16.75;78.05;101947.53;5072907;28;20044;-72
2023/09/28 09:29:11;;;;;;;3.05;2.83;;;;;;;16.72;78.20;101947.63;5075195;28;20055;-72
2023/09/28 09:31:40;;;;;;;2.95;2.78;;;;;;;16.69;77.71;101950.34;5074115;28;20755;-75
2023/09/28 09:34:11;;;;;;;2.30;2.10;;;;;;;16.67;78.09;101951.28;5078519;28;20045;-75
2023/09/28 09:36:38;;;;;;;2.33;2.13;;;;;;;16.67;77.89;101949.50;5079544;28;20808;-75
2023/09/28 09:39:06;;;;;;;2.58;2.42;;;;;;;16.67;77.92;101949.50;5076799;28;20106;-73
2023/09/28 09:41:45;;;;;;;5.30;2.20;;;;;;;16.66;77.97;101945.13;5073946;28;20049;-77
2023/09/28 09:44:16;;;;;;;2.20;2.10;;;;;;;16.63;77.93;101945.22;5079512;28;20064;-76
2023/09/28 09:46:46;;;;;;;2.88;2.70;;;;;;;16.61;77.91;101944.38;5080255;28;20064;-74
2023/09/28 09:49:15;;;;;;;2.95;2.75;;;;;;;16.60;77.95;101934.75;5074462;28;20786;-75
2023/09/28 09:51:46;;;;;;;2.47;2.35;;;;;;;16.62;78.09;101931.16;5076889;28;20443;-75
2023/09/28 09:54:14;;;;;;;3.05;2.85;;;;;;;16.63;77.77;101932.88;5069409;28;20052;-76
2023/09/28 09:56:46;;;;;;;2.88;2.78;;;;;;;16.63;77.88;101924.13;5074424;28;20044;-73
2023/09/28 09:59:15;;;;;;;2.40;2.20;;;;;;;16.63;77.80;101932.88;5071904;28;20055;-74
2023/09/28 10:01:46;;;;;;;4.43;2.95;;;;;;;16.64;77.71;101928.47;5081800;28;20101;-73
2023/09/28 10:04:16;;;;;;;2.88;2.67;;;;;;;16.63;77.68;101939.94;5075200;28;20047;-73
2023/09/28 10:06:45;;;;;;;3.42;3.22;;;;;;;16.59;77.46;101931.25;5074229;28;20040;-73
2023/09/28 10:09:13;;;;;;;2.95;2.75;;;;;;;16.56;77.50;101919.88;5076805;28;20177;-73
2023/09/28 10:11:41;;;;;;;2.88;2.65;;;;;;;16.60;77.49;101926.81;5073376;28;20802;-73
2023/09/28 10:14:10;;;;;;;3.00;2.80;;;;;;;16.60;77.63;101925.06;5078520;28;20048;-74
2023/09/28 10:16:38;;;;;;;3.20;3.00;;;;;;;16.60;77.41;101921.56;5079188;28;20418;-78
2023/09/28 10:19:06;;;;;;;3.15;2.95;;;;;;;16.61;77.33;101924.13;5077780;28;20045;-78
2023/09/28 10:21:37;;;;;;;2.83;2.72;;;;;;;16.61;77.28;101924.13;5077431;28;20504;-78
2023/09/28 10:24:11;;;;;;;3.28;3.03;;;;;;;16.62;77.26;101914.44;5076987;28;20420;-78
2023/09/28 10:26:39;;;;;;;2.47;2.22;;;;;;;16.61;77.36;101902.16;5081165;28;20040;-73
2023/09/28 10:29:07;;;;;;;2.67;2.47;;;;;;;16.57;77.15;101911.09;5074465;28;20056;-73
2023/09/28 10:31:37;;;;;;;2.78;2.65;;;;;;;16.56;77.34;101917.25;5071060;28;20050;-74
2023/09/28 10:34:05;;;;;;;2.28;2.15;;;;;;;16.53;77.31;101909.41;5077149;28;20474;-73
2023/09/28 10:36:35;;;;;;;3.08;2.35;;;;;;;16.49;77.34;101908.63;5072569;28;20048;-73
2023/09/28 10:39:11;;;;;;;2.70;2.50;;;;;;;16.50;77.37;101906.84;5077372;28;20048;-73
2023/09/28 10:41:39;;;;;;;3.38;3.08;;;;;;;16.48;77.49;101911.28;5077772;28;20131;-73
2023/09/28 10:44:16;;;;;;;2.92;2.72;;;;;;;16.47;77.49;101907.78;5071382;28;20453;-74
2023/09/28 10:46:47;;;;;;;3.05;2.85;;;;;;;16.47;77.57;101899.88;5071862;28;20051;-72
2023/09/28 10:49:15;;;;;;;3.63;3.35;;;;;;;16.48;77.44;101900.75;5076905;28;20040;-73
2023/09/28 10:51:43;;;;;;;4.03;3.72;;;;;;;16.47;77.71;101896.38;5075325;28;20048;-73
2023/09/28 10:54:10;;;;;;;4.05;3.75;;;;;;;16.47;77.40;101889.31;5069620;28;20044;-73
2023/09/28 10:56:38;;;;;;;5.05;3.90;;;;;;;16.47;77.58;101891.97;5079867;28;20105;-75
2023/09/28 10:59:07;;;;;;;4.28;3.97;;;;;;;16.48;77.63;101874.38;5071669;28;20640;-75
2023/09/28 11:01:34;;;;;;;7.03;3.90;;;;;;;16.46;77.48;101870.94;5077714;28;20507;-76
2023/09/28 11:04:03;;;;;;;4.47;4.07;;;;;;;16.46;77.69;101870.94;5076647;28;20163;-75
2023/09/28 11:06:30;;;;;;;4.53;4.13;;;;;;;16.48;77.86;101869.97;5074498;28;20041;-75
2023/09/28 11:09:01;;;;;;;4.10;3.70;;;;;;;16.48;77.83;101869.09;5074053;28;20049;-76
2023/09/28 11:11:28;;;;;;;4.53;4.13;;;;;;;16.50;77.73;101869.94;5078835;28;20155;-76
2023/09/28 11:13:57;;;;;;;6.30;4.20;;;;;;;16.50;77.75;101865.50;5077065;28;20052;-86
2023/09/28 11:16:25;;;;;;;5.03;4.38;;;;;;;16.52;77.76;101862.84;5070707;28;20131;-89
2023/09/28 11:18:52;;;;;;;4.45;3.92;;;;;;;16.51;77.82;101864.63;5081542;28;20052;-85
2023/09/28 11:21:21;;;;;;;3.78;3.42;;;;;;;16.48;77.81;101866.44;5078580;28;20070;-91
2023/09/28 11:23:51;;;;;;;4.55;3.83;;;;;;;16.46;77.64;101860.38;5084649;28;20062;-82